Time;durP1;ratioP1;P1;durP2;ratioP2;P2;SDS_P1;SDS_P2;PMS_P1;PMS_P2;Temp;Humidity;BMP_temperature;BMP_pressure;BME280_temperature;BME280_humidity;BME280_pressure;Samples;Min_cycle;Max_cycle;Signal;HPM_P1;HPM_P2
2023/03/13 03:31:56;;;;;;;;;6.33;5.33;;;;;;;;116302;1199;23444;-59
2023/03/13 03:34:24;;;;;;;;;7.00;5.00;;;;;;;;117105;1188;25571;-58
2023/03/13 03:36:53;;;;;;;;;4.00;4.00;;;;;;;;117073;1185;25643;-59
2023/03/13 03:39:21;;;;;;;;;6.00;3.67;;;;;;;;117037;1186;25635;-60
2023/03/13 03:41:50;;;;;;;;;5.25;3.50;;;;;;;;117077;1197;25308;-60
2023/03/13 03:44:18;;;;;;;;;6.75;5.00;;;;;;;;117060;1185;25040;-66
2023/03/13 03:46:46;;;;;;;;;5.00;5.00;;;;;;;;117042;1186;25071;-60
2023/03/13 03:49:15;;;;;;;;;7.67;6.33;;;;;;;;117040;1197;25015;-60
2023/03/13 03:51:43;;;;;;;;;8.50;4.75;;;;;;;;116998;1187;25086;-60
2023/03/13 03:54:12;;;;;;;;;6.75;6.00;;;;;;;;116955;1197;25127;-60
2023/03/13 03:56:40;;;;;;;;;6.75;6.00;;;;;;;;117358;1186;25527;-59
2023/03/13 03:59:09;;;;;;;;;8.50;6.75;;;;;;;;117416;1194;25167;-58
2023/03/13 04:01:37;;;;;;;;;5.50;4.50;;;;;;;;117314;1185;25316;-59
2023/03/13 04:04:06;;;;;;;;;5.67;5.67;;;;;;;;117413;1194;26777;-57
2023/03/13 04:06:34;;;;;;;;;5.67;5.67;;;;;;;;117424;1182;25609;-60
2023/03/13 04:09:03;;;;;;;;;10.33;6.33;;;;;;;;117400;1194;25413;-59
2023/03/13 04:11:32;;;;;;;;;7.00;3.00;;;;;;;;117406;1194;25584;-59
2023/03/13 04:14:00;;;;;;;;;4.00;3.00;;;;;;;;117385;1181;25993;-58
2023/03/13 04:16:28;;;;;;;;;12.50;6.00;;;;;;;;117357;1184;25106;-59
2023/03/13 04:18:57;;;;;;;;;6.00;5.00;;;;;;;;117389;1194;24987;-58
2023/03/13 04:21:25;;;;;;;;;7.00;5.00;;;;;;;;117416;1186;25466;-59
2023/03/13 04:23:54;;;;;;;;;6.00;6.00;;;;;;;;117415;1181;25696;-59
2023/03/13 04:26:22;;;;;;;;;10.00;5.33;;;;;;;;117407;1181;24763;-58
2023/03/13 04:28:50;;;;;;;;;5.75;5.00;;;;;;;;117419;1180;24784;-60
2023/03/13 04:31:19;;;;;;;;;8.50;7.75;;;;;;;;117391;1180;24941;-60
2023/03/13 04:33:48;;;;;;;;;6.67;6.00;;;;;;;;117414;1180;24921;-62
2023/03/13 04:36:16;;;;;;;;;4.00;4.00;;;;;;;;117415;1194;25145;-60
2023/03/13 04:38:45;;;;;;;;;7.00;3.00;;;;;;;;117423;1181;27071;-58
2023/03/13 04:41:13;;;;;;;;;8.00;5.00;;;;;;;;117415;1184;25361;-59
2023/03/13 04:43:41;;;;;;;;;6.50;5.75;;;;;;;;117466;1184;24860;-57
2023/03/13 04:46:10;;;;;;;;;8.25;6.25;;;;;;;;117423;1184;25406;-59
2023/03/13 04:48:38;;;;;;;;;7.00;5.50;;;;;;;;117416;1187;25859;-59
2023/03/13 04:51:07;;;;;;;;;7.00;6.00;;;;;;;;117389;1194;25593;-58
2023/03/13 04:53:35;;;;;;;;;8.50;7.00;;;;;;;;117412;1182;24775;-59
2023/03/13 04:56:04;;;;;;;;;6.67;5.00;;;;;;;;117435;1182;25744;-59
2023/03/13 04:58:33;;;;;;;;;5.25;4.50;;;;;;;;117415;1182;25254;-58
2023/03/13 05:01:01;;;;;;;;;6.67;6.67;;;;;;;;117425;1183;25212;-58
2023/03/13 05:03:30;;;;;;;;;6.25;5.50;;;;;;;;117426;1194;25512;-57
2023/03/13 05:05:58;;;;;;;;;6.50;4.50;;;;;;;;117387;1194;25149;-58
2023/03/13 05:08:26;;;;;;;;;5.50;5.50;;;;;;;;117389;1184;25405;-58
2023/03/13 05:10:55;;;;;;;;;2.00;2.00;;;;;;;;117415;1182;25229;-57
2023/03/13 05:13:24;;;;;;;;;8.00;5.67;;;;;;;;117436;1194;25131;-58
2023/03/13 05:15:52;;;;;;;;;5.75;5.25;;;;;;;;117438;1182;24855;-57
2023/03/13 05:18:21;;;;;;;;;6.67;5.00;;;;;;;;117387;1184;24818;-57
2023/03/13 05:20:49;;;;;;;;;7.00;5.33;;;;;;;;118009;1184;24967;-57
2023/03/13 05:23:18;;;;;;;;;5.00;5.00;;;;;;;;117417;1182;26025;-57
2023/03/13 05:25:46;;;;;;;;;6.67;5.67;;;;;;;;117403;1183;25136;-57
2023/03/13 05:28:15;;;;;;;;;7.50;6.00;;;;;;;;117418;1183;25030;-57
2023/03/13 05:30:43;;;;;;;;;4.00;4.00;;;;;;;;117374;1194;25650;-58
2023/03/13 05:33:11;;;;;;;;;7.00;6.00;;;;;;;;117440;1184;25123;-57
2023/03/13 05:35:41;;;;;;;;;5.50;4.25;;;;;;;;117385;1184;25169;-57
2023/03/13 05:38:10;;;;;;;;;7.25;5.25;;;;;;;;117437;1182;25084;-57
2023/03/13 05:40:38;;;;;;;;;6.00;6.00;;;;;;;;117427;1194;24933;-58
2023/03/13 05:43:07;;;;;;;;;9.33;7.00;;;;;;;;117427;1182;24840;-58
2023/03/13 05:45:35;;;;;;;;;5.50;5.00;;;;;;;;117363;1191;25141;-59
2023/03/13 05:48:04;;;;;;;;;7.00;5.25;;;;;;;;117430;1185;25581;-57
2023/03/13 05:50:32;;;;;;;;;7.50;5.25;;;;;;;;117462;1182;25057;-57
2023/03/13 05:53:01;;;;;;;;;7.50;5.75;;;;;;;;117431;1194;25218;-57
2023/03/13 05:55:29;;;;;;;;;6.00;4.00;;;;;;;;117407;1182;24707;-58
2023/03/13 05:57:57;;;;;;;;;6.50;6.50;;;;;;;;117431;1194;25060;-58
2023/03/13 06:00:26;;;;;;;;;5.50;5.50;;;;;;;;117393;1182;25187;-58
2023/03/13 06:02:55;;;;;;;;;7.00;7.00;;;;;;;;117433;1182;25176;-58
2023/03/13 06:05:23;;;;;;;;;8.00;4.67;;;;;;;;117382;1184;25401;-58
2023/03/13 06:07:52;;;;;;;;;9.00;6.00;;;;;;;;117429;1184;25297;-57
2023/03/13 06:10:20;;;;;;;;;7.00;6.00;;;;;;;;117391;1184;25416;-59
2023/03/13 06:12:53;;;;;;;;;5.67;5.67;;;;;;;;117405;1184;24716;-58
2023/03/13 06:15:22;;;;;;;;;7.00;6.00;;;;;;;;117397;1181;25613;-58
2023/03/13 06:17:50;;;;;;;;;6.00;5.00;;;;;;;;117413;1190;25431;-58
2023/03/13 06:20:19;;;;;;;;;4.00;4.00;;;;;;;;117371;1183;24811;-58
2023/03/13 06:22:47;;;;;;;;;9.50;7.50;;;;;;;;117359;1185;25036;-57
2023/03/13 06:25:16;;;;;;;;;4.50;4.50;;;;;;;;117427;1194;25093;-58
2023/03/13 06:27:44;;;;;;;;;6.00;4.33;;;;;;;;117366;1184;25717;-57
2023/03/13 06:30:13;;;;;;;;;5.50;4.75;;;;;;;;117417;1194;25691;-57
2023/03/13 06:32:41;;;;;;;;;7.00;4.00;;;;;;;;117419;1182;25202;-57
2023/03/13 06:35:10;;;;;;;;;4.00;4.00;;;;;;;;117408;1181;24807;-58
2023/03/13 06:37:38;;;;;;;;;6.00;6.00;;;;;;;;117455;1182;25249;-58
2023/03/13 06:40:08;;;;;;;;;8.00;6.00;;;;;;;;117356;1182;25661;-58
2023/03/13 06:42:36;;;;;;;;;7.75;5.50;;;;;;;;117432;1184;24720;-58
2023/03/13 06:45:06;;;;;;;;;8.33;7.00;;;;;;;;117366;1183;25100;-57
2023/03/13 06:47:34;;;;;;;;;9.33;6.33;;;;;;;;117451;1194;25081;-57
2023/03/13 06:50:03;;;;;;;;;7.33;6.00;;;;;;;;117421;1182;25565;-57
2023/03/13 06:52:31;;;;;;;;;3.75;3.75;;;;;;;;117351;1194;25624;-57
2023/03/13 06:55:11;;;;;;;;;4.00;3.00;;;;;;;;117409;1184;25695;-58
2023/03/13 06:57:40;;;;;;;;;4.00;4.00;;;;;;;;117389;1194;25492;-62
2023/03/13 07:00:10;;;;;;;;;4.67;4.67;;;;;;;;117422;1182;25690;-63
2023/03/13 07:02:38;;;;;;;;;5.50;5.50;;;;;;;;117413;1194;25569;-60
2023/03/13 07:05:08;;;;;;;;;5.00;4.33;;;;;;;;117405;1186;24963;-60
2023/03/13 07:07:36;;;;;;;;;7.00;5.67;;;;;;;;117437;1194;25671;-60
2023/03/13 07:10:05;;;;;;;;;5.00;5.00;;;;;;;;117441;1187;25012;-60
2023/03/13 07:12:34;;;;;;;;;5.00;5.00;;;;;;;;117539;1183;25114;-62
2023/03/13 07:15:04;;;;;;;;;9.00;7.00;;;;;;;;117427;1187;25440;-62
2023/03/13 07:17:32;;;;;;;;;5.33;4.33;;;;;;;;117404;1194;25039;-62
2023/03/13 07:20:00;;;;;;;;;9.00;7.00;;;;;;;;117397;1194;24812;-63
2023/03/13 07:22:29;;;;;;;;;5.00;5.00;;;;;;;;117420;1194;25710;-60
2023/03/13 07:24:58;;;;;;;;;5.00;5.00;;;;;;;;117363;1187;25093;-60
2023/03/13 07:27:26;;;;;;;;;8.00;6.67;;;;;;;;117394;1194;25260;-61
2023/03/13 07:29:55;;;;;;;;;7.25;5.50;;;;;;;;117423;1182;25370;-59
2023/03/13 07:32:23;;;;;;;;;16.67;9.00;;;;;;;;117411;1184;25105;-60
2023/03/13 07:34:52;;;;;;;;;41.00;22.00;;;;;;;;117449;1182;25699;-59
2023/03/13 07:37:20;;;;;;;;;32.50;22.00;;;;;;;;117400;1182;25162;-60
2023/03/13 07:39:49;;;;;;;;;20.00;10.50;;;;;;;;117401;1183;24734;-58
2023/03/13 07:42:17;;;;;;;;;20.75;14.75;;;;;;;;117447;1194;25415;-59
2023/03/13 07:44:46;;;;;;;;;22.50;12.50;;;;;;;;117396;1184;25447;-57
2023/03/13 07:47:14;;;;;;;;;11.00;7.50;;;;;;;;117443;1182;25022;-61
2023/03/13 07:49:45;;;;;;;;;17.33;11.00;;;;;;;;117421;1182;25242;-58
2023/03/13 07:52:13;;;;;;;;;20.50;10.00;;;;;;;;117437;1184;24775;-58
2023/03/13 07:54:41;;;;;;;;;13.33;12.00;;;;;;;;117380;1190;25636;-58
2023/03/13 07:57:10;;;;;;;;;7.00;7.00;;;;;;;;117404;1190;24788;-58
2023/03/13 07:59:38;;;;;;;;;16.67;9.00;;;;;;;;117403;1194;24979;-58
2023/03/13 08:02:11;;;;;;;;;9.50;8.75;;;;;;;;117354;1194;25182;-58
2023/03/13 08:04:39;;;;;;;;;13.33;8.67;;;;;;;;117836;1192;25416;-58
2023/03/13 08:07:11;;;;;;;;;12.50;8.75;;;;;;;;117857;1192;25582;-58
2023/03/13 08:09:40;;;;;;;;;16.00;10.67;;;;;;;;117613;1188;25061;-58
2023/03/13 08:12:08;;;;;;;;;15.50;9.50;;;;;;;;117858;1180;25648;-58
2023/03/13 08:14:37;;;;;;;;;15.00;10.50;;;;;;;;117844;1179;24714;-60
2023/03/13 08:17:05;;;;;;;;;12.50;9.75;;;;;;;;117822;1192;25513;-58
2023/03/13 08:19:34;;;;;;;;;16.25;9.75;;;;;;;;117864;1180;25329;-58
2023/03/13 08:22:02;;;;;;;;;14.50;11.00;;;;;;;;117892;1192;25517;-58
2023/03/13 08:24:31;;;;;;;;;15.50;11.75;;;;;;;;117924;1179;29501;-58
2023/03/13 08:26:59;;;;;;;;;10.00;5.75;;;;;;;;117827;1192;26446;-58
2023/03/13 08:29:28;;;;;;;;;21.33;11.33;;;;;;;;117898;1181;25609;-57
2023/03/13 08:31:56;;;;;;;;;16.00;9.50;;;;;;;;117897;1192;24851;-58
2023/03/13 08:34:25;;;;;;;;;14.33;10.00;;;;;;;;117934;1184;25237;-57
2023/03/13 08:36:53;;;;;;;;;15.50;13.00;;;;;;;;117950;1182;25671;-57
2023/03/13 08:39:21;;;;;;;;;13.00;8.00;;;;;;;;117886;1192;25248;-59
2023/03/13 08:41:50;;;;;;;;;14.67;9.67;;;;;;;;117868;1192;25027;-59
2023/03/13 08:44:19;;;;;;;;;12.50;10.75;;;;;;;;117929;1179;24861;-60
2023/03/13 08:46:51;;;;;;;;;14.50;9.00;;;;;;;;117892;1179;25383;-60
2023/03/13 08:49:19;;;;;;;;;10.00;8.33;;;;;;;;117869;1180;25189;-59
2023/03/13 08:51:48;;;;;;;;;18.00;13.67;;;;;;;;117827;1189;25096;-59
2023/03/13 08:54:16;;;;;;;;;14.75;10.75;;;;;;;;117801;1188;24932;-60
2023/03/13 08:56:45;;;;;;;;;12.00;11.00;;;;;;;;117816;1180;25160;-59
2023/03/13 08:59:16;;;;;;;;;11.50;11.50;;;;;;;;117884;1179;24850;-59
2023/03/13 09:01:45;;;;;;;;;14.00;12.00;;;;;;;;117858;1180;25878;-60
2023/03/13 09:04:13;;;;;;;;;17.50;10.75;;;;;;;;117834;1180;25054;-59
2023/03/13 09:06:42;;;;;;;;;12.25;12.25;;;;;;;;117861;1184;25070;-60
2023/03/13 09:09:11;;;;;;;;;12.50;10.00;;;;;;;;117768;1180;25652;-60
2023/03/13 09:11:40;;;;;;;;;13.00;10.00;;;;;;;;117911;1179;24874;-60
2023/03/13 09:14:09;;;;;;;;;12.00;10.00;;;;;;;;117817;1190;25287;-60
2023/03/13 09:16:37;;;;;;;;;13.00;11.33;;;;;;;;117888;1179;25303;-59
2023/03/13 09:19:06;;;;;;;;;14.00;11.50;;;;;;;;117890;1183;25365;-59
2023/03/13 09:21:35;;;;;;;;;10.00;10.00;;;;;;;;117833;1192;25419;-59
2023/03/13 09:24:04;;;;;;;;;11.00;10.00;;;;;;;;117929;1190;25309;-59
2023/03/13 09:26:32;;;;;;;;;12.00;9.00;;;;;;;;117822;1180;26333;-59
2023/03/13 09:29:01;;;;;;;;;15.75;11.25;;;;;;;;117856;1189;25156;-60
2023/03/13 09:31:31;;;;;;;;;13.00;11.00;;;;;;;;117854;1190;25458;-59
2023/03/13 09:34:00;;;;;;;;;12.50;11.00;;;;;;;;117845;1180;25374;-61
2023/03/13 09:36:28;;;;;;;;;10.00;10.00;;;;;;;;117881;1184;25634;-58
2023/03/13 09:38:58;;;;;;;;;12.00;10.67;;;;;;;;117866;1179;24992;-60
2023/03/13 09:41:44;;;;;;;;;16.00;12.00;;;;;;;;117904;1192;25235;-59
2023/03/13 09:44:18;;;;;;;;;12.33;10.67;;;;;;;;117845;1179;25315;-59
2023/03/13 09:46:52;;;;;;;;;9.50;9.00;;;;;;;;117828;1179;24847;-59
2023/03/13 09:49:34;;;;;;;;;11.50;11.00;;;;;;;;117854;1179;25555;-58
2023/03/13 09:52:16;;;;;;;;;16.67;12.33;;;;;;;;117471;1180;25071;-60
2023/03/13 09:55:09;;;;;;;;;10.50;9.75;;;;;;;;117823;1188;25431;-59
2023/03/13 09:57:59;;;;;;;;;6.50;5.50;;;;;;;;117472;1180;24733;-59
2023/03/13 10:00:34;;;;;;;;;8.67;8.33;;;;;;;;117499;1180;24797;-58
2023/03/13 10:03:14;;;;;;;;;10.75;10.25;;;;;;;;117496;1180;24734;-60
2023/03/13 10:05:48;;;;;;;;;13.33;11.67;;;;;;;;117823;1191;25481;-61
2023/03/13 10:08:19;;;;;;;;;17.67;12.67;;;;;;;;117491;1189;25636;-60
2023/03/13 10:11:11;;;;;;;;;11.00;9.00;;;;;;;;117453;1180;25405;-58
2023/03/13 10:13:47;;;;;;;;;12.50;10.75;;;;;;;;117820;1181;24902;-58
2023/03/13 10:16:26;;;;;;;;;15.00;12.00;;;;;;;;117853;1192;25295;-59
2023/03/13 10:18:58;;;;;;;;;12.50;10.75;;;;;;;;117467;1180;25473;-58
2023/03/13 10:21:32;;;;;;;;;12.25;8.50;;;;;;;;117805;1192;25544;-59
2023/03/13 10:24:38;;;;;;;;;9.00;9.00;;;;;;;;117768;1193;25044;-60
2023/03/13 10:27:13;;;;;;;;;13.50;12.50;;;;;;;;117788;1180;25512;-59
2023/03/13 10:29:42;;;;;;;;;8.50;7.75;;;;;;;;117479;1193;24983;-60
2023/03/13 10:32:14;;;;;;;;;11.33;10.67;;;;;;;;117786;1191;24911;-59
2023/03/13 10:34:48;;;;;;;;;13.00;12.50;;;;;;;;117486;1180;25399;-58
2023/03/13 10:37:21;;;;;;;;;11.00;8.33;;;;;;;;117695;1179;24903;-58
2023/03/13 10:39:50;;;;;;;;;15.50;10.00;;;;;;;;117459;1193;24780;-59
2023/03/13 10:42:32;;;;;;;;;7.25;7.25;;;;;;;;117715;1181;24821;-59
2023/03/13 10:45:04;;;;;;;;;7.33;7.00;;;;;;;;117658;1192;24966;-58
2023/03/13 10:47:34;;;;;;;;;10.00;9.00;;;;;;;;117709;1184;25098;-59
2023/03/13 10:50:03;;;;;;;;;14.33;10.00;;;;;;;;117789;1180;25277;-59
2023/03/13 10:52:46;;;;;;;;;17.50;11.50;;;;;;;;117777;1179;24925;-60
2023/03/13 10:55:21;;;;;;;;;13.50;10.00;;;;;;;;117476;1180;24976;-59
2023/03/13 10:58:03;;;;;;;;;10.67;9.33;;;;;;;;117632;1193;25644;-58
2023/03/13 11:00:37;;;;;;;;;9.75;8.50;;;;;;;;117710;1184;25207;-59
2023/03/13 11:03:16;;;;;;;;;13.00;10.00;;;;;;;;117442;1193;25176;-59
2023/03/13 11:05:54;;;;;;;;;11.25;10.00;;;;;;;;117488;1185;25062;-64
2023/03/13 11:08:43;;;;;;;;;8.00;7.00;;;;;;;;117843;1192;25542;-58
2023/03/13 11:11:18;;;;;;;;;8.50;8.50;;;;;;;;117843;1192;24752;-57
2023/03/13 11:13:46;;;;;;;;;11.00;9.00;;;;;;;;117806;1181;25057;-57
2023/03/13 11:16:27;;;;;;;;;12.25;9.75;;;;;;;;117780;1180;25573;-59
2023/03/13 11:18:56;;;;;;;;;10.50;8.75;;;;;;;;117797;1180;25003;-58
2023/03/13 11:21:53;;;;;;;;;9.25;9.25;;;;;;;;117815;1192;25044;-60
2023/03/13 11:24:30;;;;;;;;;11.67;11.00;;;;;;;;117833;1192;24952;-61
2023/03/13 11:27:13;;;;;;;;;13.00;11.00;;;;;;;;117686;1180;25262;-62
2023/03/13 11:29:42;;;;;;;;;13.67;9.67;;;;;;;;117903;1192;25591;-60
2023/03/13 11:32:21;;;;;;;;;12.00;9.00;;;;;;;;117874;1190;25680;-60
2023/03/13 11:35:03;;;;;;;;;15.00;13.00;;;;;;;;117745;1179;24798;-60
2023/03/13 11:37:34;;;;;;;;;10.67;10.33;;;;;;;;117614;1190;25583;-60
2023/03/13 11:40:14;;;;;;;;;13.00;10.00;;;;;;;;117769;1179;25574;-60
2023/03/13 11:43:08;;;;;;;;;10.50;10.00;;;;;;;;117885;1180;25528;-60
2023/03/13 11:45:59;;;;;;;;;11.50;10.50;;;;;;;;117818;1192;25513;-60
2023/03/13 11:48:52;;;;;;;;;12.00;11.00;;;;;;;;117827;1180;25006;-60
2023/03/13 11:51:40;;;;;;;;;10.75;9.00;;;;;;;;117801;1188;25196;-61
2023/03/13 11:54:30;;;;;;;;;11.75;9.50;;;;;;;;117869;1179;25311;-60
2023/03/13 11:57:29;;;;;;;;;9.50;9.50;;;;;;;;117864;1179;25624;-61
2023/03/13 12:00:14;;;;;;;;;10.00;9.50;;;;;;;;117845;1179;24844;-62
2023/03/13 12:03:08;;;;;;;;;14.75;11.00;;;;;;;;117808;1179;25256;-62
2023/03/13 12:05:45;;;;;;;;;11.50;10.50;;;;;;;;117851;1179;25160;-59
2023/03/13 12:08:24;;;;;;;;;8.67;7.67;;;;;;;;117785;1181;25567;-60
2023/03/13 12:11:01;;;;;;;;;8.67;8.33;;;;;;;;117874;1181;24731;-59
2023/03/13 12:14:03;;;;;;;;;11.50;11.00;;;;;;;;117868;1186;24980;-59
2023/03/13 12:16:45;;;;;;;;;7.00;7.00;;;;;;;;117879;1192;25275;-59
2023/03/13 12:19:28;;;;;;;;;10.75;9.00;;;;;;;;117882;1181;24920;-59
2023/03/13 12:22:06;;;;;;;;;9.67;7.00;;;;;;;;117936;1179;24725;-59
2023/03/13 12:24:39;;;;;;;;;9.50;8.00;;;;;;;;117926;1192;25330;-60
2023/03/13 12:27:26;;;;;;;;;10.50;9.00;;;;;;;;117872;1179;25282;-60
2023/03/13 12:29:59;;;;;;;;;7.67;7.67;;;;;;;;117853;1192;25340;-60
2023/03/13 12:32:45;;;;;;;;;7.50;7.50;;;;;;;;117860;1184;25202;-60
2023/03/13 12:35:13;;;;;;;;;13.00;8.25;;;;;;;;117847;1192;25059;-59
2023/03/13 12:37:49;;;;;;;;;8.00;6.50;;;;;;;;117851;1184;25797;-60
2023/03/13 12:40:18;;;;;;;;;12.00;9.00;;;;;;;;117886;1179;25235;-60
2023/03/13 12:43:05;;;;;;;;;8.67;6.67;;;;;;;;117882;1179;24794;-60
2023/03/13 12:45:37;;;;;;;;;9.33;7.33;;;;;;;;117893;1192;25494;-60
2023/03/13 12:48:25;;;;;;;;;9.00;8.50;;;;;;;;117907;1179;25631;-60
2023/03/13 12:51:03;;;;;;;;;7.67;7.67;;;;;;;;117868;1180;25083;-60
2023/03/13 12:53:46;;;;;;;;;5.67;4.67;;;;;;;;117767;1181;25451;-60
2023/03/13 12:56:31;;;;;;;;;8.00;7.00;;;;;;;;117738;1179;25192;-59
2023/03/13 12:59:04;;;;;;;;;4.00;4.00;;;;;;;;117875;1188;25669;-60
2023/03/13 13:01:41;;;;;;;;;7.00;7.00;;;;;;;;117829;1180;25357;-60
2023/03/13 13:04:27;;;;;;;;;7.25;5.00;;;;;;;;117779;1180;24702;-60
2023/03/13 13:07:07;;;;;;;;;5.50;5.50;;;;;;;;117719;1180;25609;-60
2023/03/13 13:09:38;;;;;;;;;9.75;7.75;;;;;;;;117806;1180;24845;-60
2023/03/13 13:12:20;;;;;;;;;8.25;6.50;;;;;;;;117823;1179;25062;-59
2023/03/13 13:14:48;;;;;;;;;9.00;9.00;;;;;;;;117765;1179;25756;-60
2023/03/13 13:17:23;;;;;;;;;8.67;5.67;;;;;;;;117907;1180;24700;-60
2023/03/13 13:19:52;;;;;;;;;8.00;8.00;;;;;;;;117822;1183;25397;-60
2023/03/13 13:22:35;;;;;;;;;8.75;5.50;;;;;;;;117835;1180;25099;-61
2023/03/13 13:25:10;;;;;;;;;7.00;7.00;;;;;;;;117903;1179;25651;-61
2023/03/13 13:27:44;;;;;;;;;8.50;8.50;;;;;;;;117880;1186;24987;-60
2023/03/13 13:30:15;;;;;;;;;9.25;7.25;;;;;;;;117841;1180;25376;-60
2023/03/13 13:32:54;;;;;;;;;6.25;5.00;;;;;;;;117885;1182;24921;-60
2023/03/13 13:35:28;;;;;;;;;8.33;5.00;;;;;;;;117859;1179;25475;-60
2023/03/13 13:38:18;;;;;;;;;9.33;7.00;;;;;;;;117907;1177;25437;-59
2023/03/13 13:41:02;;;;;;;;;7.00;6.00;;;;;;;;117873;1177;25049;-59
2023/03/13 13:43:41;;;;;;;;;5.33;4.33;;;;;;;;117887;1177;25219;-60
2023/03/13 13:46:31;;;;;;;;;10.00;8.00;;;;;;;;117878;1191;25011;-58
2023/03/13 13:49:06;;;;;;;;;8.50;6.50;;;;;;;;117897;1188;24737;-59
2023/03/13 13:51:39;;;;;;;;;8.67;5.67;;;;;;;;117857;1191;25029;-61
2023/03/13 13:54:31;;;;;;;;;8.00;7.00;;;;;;;;117831;1191;24977;-59
2023/03/13 13:57:30;;;;;;;;;7.50;7.50;;;;;;;;117858;1181;25502;-60
2023/03/13 14:00:21;;;;;;;;;8.00;7.00;;;;;;;;117715;1191;25875;-59
2023/03/13 14:02:54;;;;;;;;;7.00;6.50;;;;;;;;117778;1181;24979;-59
2023/03/13 14:05:28;;;;;;;;;8.00;7.50;;;;;;;;117605;1180;25537;-59
2023/03/13 14:08:12;;;;;;;;;4.00;4.00;;;;;;;;117857;1179;24830;-59
2023/03/13 14:10:42;;;;;;;;;5.00;5.00;;;;;;;;117871;1187;24754;-59
2023/03/13 14:13:21;;;;;;;;;7.00;7.00;;;;;;;;117873;1189;25153;-59
2023/03/13 14:15:52;;;;;;;;;7.50;6.00;;;;;;;;117853;1192;24898;-59
2023/03/13 14:18:21;;;;;;;;;10.75;8.00;;;;;;;;117887;1179;25668;-60
2023/03/13 14:20:56;;;;;;;;;8.50;8.00;;;;;;;;117884;1191;25504;-59
2023/03/13 14:23:33;;;;;;;;;10.25;8.50;;;;;;;;117852;1191;25088;-59
2023/03/13 14:26:26;;;;;;;;;8.00;6.75;;;;;;;;117841;1191;25320;-58
2023/03/13 14:29:01;;;;;;;;;7.33;7.00;;;;;;;;117820;1189;24671;-59
2023/03/13 14:31:32;;;;;;;;;9.25;6.00;;;;;;;;119783;1190;25400;-59
2023/03/13 14:34:04;;;;;;;;;7.50;7.00;;;;;;;;119757;1192;24802;-60
2023/03/13 14:36:53;;;;;;;;;9.50;8.25;;;;;;;;119792;1188;25360;-60
2023/03/13 14:39:47;;;;;;;;;8.00;8.00;;;;;;;;119797;1189;25494;-60
2023/03/13 14:42:17;;;;;;;;;6.50;6.50;;;;;;;;119764;1187;25426;-60
2023/03/13 14:44:48;;;;;;;;;7.00;7.00;;;;;;;;119712;1189;25210;-59
2023/03/13 14:47:22;;;;;;;;;8.00;7.33;;;;;;;;119720;1192;25670;-59
2023/03/13 14:49:57;;;;;;;;;4.33;4.00;;;;;;;;119879;1192;25325;-60
2023/03/13 14:52:27;;;;;;;;;7.00;6.00;;;;;;;;119749;1183;25473;-60
2023/03/13 14:55:01;;;;;;;;;5.25;4.25;;;;;;;;119739;1192;25462;-59
2023/03/13 14:57:31;;;;;;;;;8.00;8.00;;;;;;;;119886;1192;25371;-59
2023/03/13 15:00:33;;;;;;;;;6.00;5.25;;;;;;;;119733;1192;25311;-60
2023/03/13 15:03:17;;;;;;;;;5.50;4.00;;;;;;;;119705;1192;26493;-60
2023/03/13 15:05:50;;;;;;;;;6.00;5.00;;;;;;;;119904;1192;25116;-60
2023/03/13 15:08:21;;;;;;;;;7.33;6.00;;;;;;;;119719;1192;25503;-59
2023/03/13 15:10:49;;;;;;;;;8.00;6.00;;;;;;;;119888;1192;25549;-59
2023/03/13 15:13:34;;;;;;;;;5.75;4.75;;;;;;;;119900;1183;25507;-60
2023/03/13 15:16:13;;;;;;;;;8.00;6.00;;;;;;;;119907;1192;24778;-60
2023/03/13 15:18:42;;;;;;;;;5.25;5.25;;;;;;;;119736;1192;25189;-59
2023/03/13 15:21:13;;;;;;;;;8.50;8.00;;;;;;;;119894;1187;25115;-60
2023/03/13 15:23:59;;;;;;;;;6.75;5.75;;;;;;;;119889;1187;24974;-60
2023/03/13 15:26:28;;;;;;;;;8.00;6.75;;;;;;;;119890;1183;25413;-60
2023/03/13 15:28:56;;;;;;;;;8.50;7.50;;;;;;;;119715;1183;24897;-60
2023/03/13 15:31:27;;;;;;;;;8.33;8.33;;;;;;;;119870;1183;24978;-59
2023/03/13 15:33:58;;;;;;;;;24.00;19.00;;;;;;;;119690;1191;25188;-60
2023/03/13 15:36:27;;;;;;;;;23.50;18.00;;;;;;;;119728;1191;25050;-60
2023/03/13 15:38:56;;;;;;;;;15.50;15.50;;;;;;;;119953;1182;24916;-60
2023/03/13 15:41:24;;;;;;;;;18.33;14.67;;;;;;;;119924;1187;25289;-60
2023/03/13 15:43:54;;;;;;;;;15.67;12.33;;;;;;;;119865;1191;24778;-60
2023/03/13 15:46:22;;;;;;;;;15.50;13.00;;;;;;;;119931;1191;25070;-60
2023/03/13 15:48:52;;;;;;;;;18.00;13.50;;;;;;;;119899;1191;25002;-59
2023/03/13 15:51:21;;;;;;;;;14.33;14.33;;;;;;;;119724;1182;25425;-61
2023/03/13 15:53:49;;;;;;;;;17.33;15.33;;;;;;;;119881;1182;25491;-60
2023/03/13 15:56:19;;;;;;;;;12.00;11.00;;;;;;;;119903;1191;24994;-61
2023/03/13 15:58:48;;;;;;;;;15.50;14.50;;;;;;;;119789;1183;25244;-60
2023/03/13 16:01:17;;;;;;;;;12.50;12.00;;;;;;;;119790;1188;25471;-60
2023/03/13 16:03:46;;;;;;;;;9.00;9.00;;;;;;;;119817;1183;25750;-60
2023/03/13 16:06:20;;;;;;;;;14.50;13.00;;;;;;;;119895;1191;25115;-60
2023/03/13 16:08:48;;;;;;;;;14.00;12.67;;;;;;;;119906;1177;24743;-60
2023/03/13 16:11:16;;;;;;;;;18.50;13.50;;;;;;;;119892;1187;25648;-60
2023/03/13 16:13:44;;;;;;;;;14.50;13.00;;;;;;;;119791;1191;25905;-60
2023/03/13 16:16:23;;;;;;;;;11.67;11.00;;;;;;;;119923;1182;25661;-60
2023/03/13 16:18:52;;;;;;;;;14.00;11.00;;;;;;;;119872;1187;25621;-60
2023/03/13 16:21:26;;;;;;;;;12.33;10.33;;;;;;;;119752;1191;25366;-60
2023/03/13 16:23:55;;;;;;;;;16.25;13.00;;;;;;;;119816;1190;25084;-60
2023/03/13 16:26:25;;;;;;;;;11.33;10.00;;;;;;;;119858;1192;25224;-61
2023/03/13 16:28:54;;;;;;;;;12.00;12.00;;;;;;;;119442;1191;24851;-60
2023/03/13 16:31:27;;;;;;;;;12.00;12.00;;;;;;;;119694;1191;24989;-60
2023/03/13 16:33:57;;;;;;;;;10.67;10.67;;;;;;;;119688;1192;25238;-60
2023/03/13 16:36:29;;;;;;;;;13.00;10.50;;;;;;;;119697;1185;25402;-60
2023/03/13 16:38:59;;;;;;;;;14.75;10.00;;;;;;;;119756;1188;25569;-59
2023/03/13 16:41:28;;;;;;;;;11.33;9.00;;;;;;;;119744;1191;25542;-60
2023/03/13 16:43:56;;;;;;;;;12.00;10.33;;;;;;;;119756;1183;25521;-60
2023/03/13 16:46:31;;;;;;;;;12.50;10.00;;;;;;;;119927;1187;25127;-59
2023/03/13 16:48:59;;;;;;;;;9.67;8.33;;;;;;;;119761;1177;25579;-59
2023/03/13 16:51:28;;;;;;;;;13.00;11.00;;;;;;;;119889;1182;25127;-59
2023/03/13 16:54:00;;;;;;;;;10.25;10.25;;;;;;;;119915;1187;24667;-59
2023/03/13 16:56:30;;;;;;;;;7.75;6.00;;;;;;;;119792;1188;24854;-59
2023/03/13 16:58:59;;;;;;;;;8.00;8.00;;;;;;;;119910;1187;24741;-59
2023/03/13 17:01:28;;;;;;;;;9.75;7.50;;;;;;;;119902;1179;25206;-59
2023/03/13 17:03:58;;;;;;;;;14.50;9.50;;;;;;;;119760;1185;25428;-60
2023/03/13 17:06:35;;;;;;;;;10.00;8.00;;;;;;;;119871;1187;25605;-60
2023/03/13 17:09:12;;;;;;;;;10.67;8.67;;;;;;;;119862;1187;25038;-59
2023/03/13 17:11:41;;;;;;;;;9.00;9.00;;;;;;;;119756;1183;25357;-60
2023/03/13 17:14:09;;;;;;;;;11.00;7.75;;;;;;;;119902;1191;25456;-60
2023/03/13 17:16:41;;;;;;;;;11.75;9.25;;;;;;;;119789;1183;24895;-60
2023/03/13 17:19:12;;;;;;;;;10.00;8.33;;;;;;;;119770;1183;24725;-60
2023/03/13 17:21:40;;;;;;;;;9.00;8.00;;;;;;;;119870;1187;25133;-59
2023/03/13 17:24:09;;;;;;;;;15.00;10.00;;;;;;;;119820;1185;25474;-59
2023/03/13 17:26:38;;;;;;;;;10.00;8.75;;;;;;;;119963;1182;25038;-58
2023/03/13 17:29:09;;;;;;;;;12.75;9.75;;;;;;;;119761;1191;25576;-59
2023/03/13 17:31:38;;;;;;;;;10.00;8.00;;;;;;;;119792;1179;25713;-59
2023/03/13 17:34:07;;;;;;;;;10.00;8.50;;;;;;;;119833;1187;25409;-61
2023/03/13 17:36:35;;;;;;;;;10.67;9.00;;;;;;;;119821;1187;25678;-61
2023/03/13 17:39:07;;;;;;;;;16.00;15.00;;;;;;;;119641;1192;24840;-61
2023/03/13 17:41:35;;;;;;;;;14.75;14.75;;;;;;;;119648;1185;25476;-60
2023/03/13 17:44:04;;;;;;;;;16.25;12.25;;;;;;;;119926;1179;24894;-60
2023/03/13 17:46:42;;;;;;;;;18.67;13.33;;;;;;;;119699;1184;25758;-60
2023/03/13 17:49:15;;;;;;;;;13.00;13.00;;;;;;;;119660;1184;25208;-59
2023/03/13 17:51:45;;;;;;;;;13.75;11.25;;;;;;;;119723;1188;25701;-59
2023/03/13 17:54:13;;;;;;;;;10.75;7.25;;;;;;;;119728;1183;25603;-61
2023/03/13 17:56:43;;;;;;;;;16.00;10.00;;;;;;;;119719;1187;25626;-60
2023/03/13 17:59:13;;;;;;;;;8.67;8.00;;;;;;;;119726;1188;25432;-63
2023/03/13 18:01:42;;;;;;;;;7.00;6.00;;;;;;;;119544;1190;25326;-59
2023/03/13 18:04:10;;;;;;;;;11.67;10.00;;;;;;;;119815;1192;25267;-60
2023/03/13 18:06:44;;;;;;;;;10.67;8.00;;;;;;;;119841;1188;25046;-58
2023/03/13 18:09:18;;;;;;;;;7.33;7.33;;;;;;;;119786;1188;25249;-61
2023/03/13 18:11:48;;;;;;;;;9.00;6.00;;;;;;;;119788;1188;25503;-60
2023/03/13 18:14:17;;;;;;;;;7.00;7.00;;;;;;;;119541;1189;25025;-58
2023/03/13 18:16:47;;;;;;;;;7.25;6.00;;;;;;;;119769;1187;24959;-60
2023/03/13 18:19:21;;;;;;;;;8.67;6.67;;;;;;;;119691;1189;24996;-60
2023/03/13 18:21:52;;;;;;;;;8.50;7.50;;;;;;;;119574;1180;24799;-61
2023/03/13 18:24:21;;;;;;;;;11.75;8.00;;;;;;;;119739;1188;25730;-62